createdAt,value
2022-11-20T00:01:15.153Z,14.57
2022-11-20T00:03:42.543Z,11.85
2022-11-20T00:06:12.113Z,8.27
2022-11-20T00:08:39.152Z,6.68
2022-11-20T00:11:15.490Z,3.45
2022-11-20T00:13:44.001Z,5.63
2022-11-20T00:16:12.963Z,6.18
2022-11-20T00:18:39.831Z,2.28
2022-11-20T00:21:18.429Z,4.90
2022-11-20T00:23:45.974Z,4.30
2022-11-20T00:26:15.830Z,6.25
2022-11-20T00:28:44.106Z,5.47
2022-11-20T00:31:16.379Z,4.93
2022-11-20T00:33:47.185Z,4.43
2022-11-20T00:36:18.373Z,5.15
2022-11-20T00:38:46.185Z,4.88
2022-11-20T00:41:15.645Z,4.20
2022-11-20T00:43:43.353Z,3.90
2022-11-20T00:46:18.807Z,6.68
2022-11-20T00:48:46.593Z,4.97
2022-11-20T00:51:25.154Z,6.57
2022-11-20T00:53:52.355Z,4.50
2022-11-20T00:56:20.348Z,4.22
2022-11-20T00:58:55.154Z,4.80
2022-11-20T01:01:26.847Z,5.68
2022-11-20T01:03:55.512Z,5.07
2022-11-20T01:06:25.256Z,4.28
2022-11-20T01:08:54.296Z,3.47
2022-11-20T01:11:33.794Z,4.55
2022-11-20T01:14:02.094Z,5.15
2022-11-20T01:16:32.574Z,3.58
2022-11-20T01:19:01.160Z,7.82
2022-11-20T01:21:33.693Z,5.57
2022-11-20T01:24:01.456Z,4.00
2022-11-20T01:26:33.963Z,5.53
2022-11-20T01:29:01.933Z,7.45
2022-11-20T01:31:31.916Z,7.53
2022-11-20T01:34:01.176Z,11.55
2022-11-20T01:36:30.039Z,9.88
2022-11-20T01:38:59.774Z,7.05
2022-11-20T01:41:48.363Z,8.25
2022-11-20T01:44:17.784Z,12.20
2022-11-20T01:46:58.975Z,15.38
2022-11-20T01:49:38.593Z,9.82
2022-11-20T01:52:12.333Z,9.23
2022-11-20T01:54:52.153Z,9.25
2022-11-20T01:57:20.977Z,10.63
2022-11-20T02:02:59.933Z,6.75
2022-11-20T02:05:39.422Z,3.80
2022-11-20T02:08:07.821Z,4.57
2022-11-20T02:10:37.609Z,3.85
2022-11-20T02:13:23.558Z,4.32
2022-11-20T02:15:50.947Z,4.47
2022-11-20T02:18:20.403Z,4.38
2022-11-20T02:20:51.256Z,3.38
2022-11-20T02:23:40.572Z,4.45
2022-11-20T02:26:12.306Z,4.22
2022-11-20T02:28:39.396Z,4.10
2022-11-20T02:31:06.330Z,4.10
2022-11-20T02:33:33.225Z,4.80
2022-11-20T02:36:00.104Z,4.20
2022-11-20T02:38:27.153Z,4.68
2022-11-20T02:40:55.695Z,3.70
2022-11-20T02:43:23.738Z,2.97
2022-11-20T02:45:51.001Z,2.67
2022-11-20T02:48:17.905Z,3.88
2022-11-20T02:50:44.785Z,3.63
2022-11-20T02:53:11.604Z,4.93
2022-11-20T02:55:38.624Z,3.67
2022-11-20T02:58:05.411Z,5.18
2022-11-20T03:00:33.304Z,5.05
2022-11-20T03:03:00.182Z,4.68
2022-11-20T03:05:27.208Z,5.53
2022-11-20T03:07:53.994Z,10.65
2022-11-20T03:10:20.900Z,7.32
2022-11-20T03:12:48.037Z,5.30
2022-11-20T03:15:14.894Z,6.97
2022-11-20T03:17:41.801Z,8.07
2022-11-20T03:20:10.154Z,13.43
2022-11-20T03:22:37.018Z,7.82
2022-11-20T03:25:04.114Z,9.32
2022-11-20T03:27:35.206Z,3.85
2022-11-20T03:30:02.427Z,4.53
2022-11-20T03:32:29.306Z,3.78
2022-11-20T03:34:56.205Z,4.40
2022-11-20T03:37:22.993Z,5.20
2022-11-20T03:39:49.886Z,4.78
2022-11-20T03:42:35.467Z,3.83
2022-11-20T03:45:02.465Z,2.78
2022-11-20T03:47:29.685Z,3.13
2022-11-20T03:49:56.727Z,2.08
2022-11-20T03:52:23.698Z,3.25
2022-11-20T03:54:50.576Z,2.10
2022-11-20T03:57:17.395Z,0.95
2022-11-20T03:59:44.508Z,0.93
2022-11-20T04:02:11.339Z,0.88
2022-11-20T04:04:38.276Z,2.35
2022-11-20T04:07:05.519Z,1.70
2022-11-20T04:09:32.627Z,1.33
2022-11-20T04:11:59.488Z,2.00
2022-11-20T04:14:26.693Z,1.65
2022-11-20T04:16:53.508Z,1.48
2022-11-20T04:19:20.469Z,2.10
2022-11-20T04:21:50.997Z,1.80
2022-11-20T04:24:21.110Z,2.85
2022-11-20T04:26:47.884Z,1.83
2022-11-20T04:29:14.721Z,2.25
2022-11-20T04:31:41.780Z,6.00
2022-11-20T04:34:09.086Z,3.53
2022-11-20T04:36:36.160Z,2.63
2022-11-20T04:39:05.974Z,3.22
2022-11-20T04:41:35.322Z,2.05
2022-11-20T04:44:04.579Z,3.00
2022-11-20T04:46:37.040Z,1.13
2022-11-20T04:49:04.856Z,2.20
2022-11-20T04:51:31.975Z,3.20
2022-11-20T04:53:58.859Z,1.85
2022-11-20T04:56:26.033Z,1.83
2022-11-20T04:58:52.905Z,2.85
2022-11-20T05:01:22.219Z,2.72
2022-11-20T05:03:49.513Z,3.47
2022-11-20T05:06:18.456Z,4.03
2022-11-20T05:08:45.263Z,2.80
2022-11-20T05:11:15.304Z,3.80
2022-11-20T05:13:42.802Z,2.20
2022-11-20T05:16:16.018Z,2.10
2022-11-20T05:18:43.213Z,1.23
2022-11-20T05:21:11.635Z,1.50
2022-11-20T05:23:39.427Z,1.95
2022-11-20T05:26:08.533Z,1.88
2022-11-20T05:28:36.007Z,3.38
2022-11-20T05:31:08.234Z,1.95
2022-11-20T05:33:36.249Z,3.75
2022-11-20T05:36:05.365Z,2.20
2022-11-20T05:38:32.603Z,3.22
2022-11-20T05:41:09.785Z,3.45
2022-11-20T05:43:38.206Z,2.80
2022-11-20T05:46:06.873Z,5.95
2022-11-20T05:48:34.976Z,5.63
2022-11-20T05:51:04.207Z,3.50
2022-11-20T05:53:31.058Z,3.33
2022-11-20T05:55:59.574Z,2.78
2022-11-20T05:58:26.408Z,2.30
2022-11-20T06:00:53.438Z,2.00
2022-11-20T06:03:20.597Z,2.65
2022-11-20T06:05:47.764Z,2.38
2022-11-20T06:08:14.547Z,4.68
2022-11-20T06:10:41.387Z,2.88
2022-11-20T06:13:08.174Z,2.88
2022-11-20T06:15:34.944Z,5.07
2022-11-20T06:18:01.822Z,4.68
2022-11-20T06:20:28.614Z,4.55
2022-11-20T06:22:55.498Z,4.32
2022-11-20T06:25:22.345Z,7.50
2022-11-20T06:27:49.234Z,9.10
2022-11-20T06:30:16.388Z,10.15
2022-11-20T06:32:43.785Z,11.15
2022-11-20T06:35:10.906Z,13.75
2022-11-20T06:37:37.834Z,20.70
2022-11-20T06:40:05.186Z,16.90
2022-11-20T06:42:31.969Z,14.35
2022-11-20T06:44:58.868Z,13.23
2022-11-20T06:47:28.926Z,12.82
2022-11-20T06:49:55.704Z,10.07
2022-11-20T06:52:22.764Z,11.20
2022-11-20T06:54:49.684Z,11.32
2022-11-20T06:57:16.614Z,13.50
2022-11-20T06:59:43.414Z,12.95
2022-11-20T07:02:14.209Z,18.02
2022-11-20T07:04:41.095Z,19.27
2022-11-20T07:07:07.967Z,22.13
2022-11-20T07:09:35.185Z,23.45
2022-11-20T07:12:02.157Z,23.83
2022-11-20T07:14:29.028Z,21.50
2022-11-20T07:16:56.224Z,23.95
2022-11-20T07:19:23.435Z,24.85
2022-11-20T07:21:50.496Z,28.75
2022-11-20T07:24:17.666Z,31.80
2022-11-20T07:26:48.096Z,41.60
2022-11-20T07:29:14.874Z,37.80
2022-11-20T07:31:42.756Z,35.50
2022-11-20T07:34:09.944Z,37.63
2022-11-20T07:36:36.736Z,37.85
2022-11-20T07:39:03.605Z,37.03
2022-11-20T07:41:30.413Z,37.75
2022-11-20T07:43:57.214Z,40.45
2022-11-20T07:46:24.073Z,36.85
2022-11-20T07:48:50.873Z,74.97
2022-11-20T07:51:17.700Z,52.90
2022-11-20T07:53:44.526Z,49.20
2022-11-20T07:56:11.324Z,53.40
2022-11-20T07:58:38.212Z,55.80
2022-11-20T08:01:06.475Z,58.97
2022-11-20T08:03:33.536Z,57.13
2022-11-20T08:06:02.106Z,58.88
2022-11-20T08:08:33.333Z,73.90
2022-11-20T08:11:19.317Z,69.90
2022-11-20T08:14:04.774Z,62.55
2022-11-20T08:16:31.651Z,61.97
2022-11-20T08:18:58.817Z,64.57
2022-11-20T08:21:25.629Z,55.05
2022-11-20T08:23:53.045Z,53.72
2022-11-20T08:26:19.824Z,55.00
2022-11-20T08:28:46.788Z,68.43
2022-11-20T08:31:13.813Z,57.95
2022-11-20T08:33:40.625Z,54.65
2022-11-20T08:36:07.890Z,58.72
2022-11-20T08:38:34.795Z,64.60
2022-11-20T08:41:21.833Z,63.72
2022-11-20T08:46:15.694Z,56.83
2022-11-20T08:48:42.949Z,48.78
2022-11-20T08:51:10.092Z,53.65
2022-11-20T08:53:37.002Z,53.30
2022-11-20T08:56:03.960Z,56.45
2022-11-20T08:58:31.209Z,52.45
2022-11-20T09:00:58.254Z,49.40
2022-11-20T09:03:32.587Z,63.28
2022-11-20T09:06:06.142Z,62.95
2022-11-20T09:08:33.452Z,61.38
2022-11-20T09:11:01.062Z,62.47
2022-11-20T09:13:30.843Z,54.50
2022-11-20T09:15:59.652Z,58.35
2022-11-20T09:18:28.232Z,60.78
2022-11-20T09:21:02.061Z,57.88
2022-11-20T09:23:33.852Z,54.38
2022-11-20T09:26:04.633Z,53.08
2022-11-20T09:28:32.563Z,49.33
2022-11-20T09:30:59.965Z,53.67
2022-11-20T09:33:27.495Z,51.95
2022-11-20T09:35:54.395Z,46.88
2022-11-20T09:38:21.403Z,51.42
2022-11-20T09:41:08.379Z,51.03
2022-11-20T09:44:00.266Z,57.15
2022-11-20T09:46:37.056Z,59.80
2022-11-20T09:49:19.428Z,51.25
2022-11-20T09:51:59.980Z,46.85
2022-11-20T09:54:40.423Z,50.75
2022-11-20T09:57:13.765Z,43.90
2022-11-20T09:59:42.165Z,40.03
2022-11-20T10:02:47.876Z,39.80
2022-11-20T10:05:34.122Z,44.05
2022-11-20T10:08:15.857Z,35.47
2022-11-20T10:11:02.650Z,37.47
2022-11-20T10:14:00.440Z,42.65
2022-11-20T10:16:40.771Z,37.78
2022-11-20T10:19:17.100Z,37.45
2022-11-20T10:22:21.248Z,39.40
2022-11-20T10:25:05.466Z,34.67
2022-11-20T10:27:47.432Z,34.53
2022-11-20T10:30:17.578Z,31.13
2022-11-20T10:32:48.193Z,38.92
2022-11-20T10:35:14.913Z,32.45
2022-11-20T10:37:46.926Z,35.58
2022-11-20T10:40:39.832Z,41.05
2022-11-20T10:43:33.165Z,42.85
2022-11-20T10:46:26.633Z,45.90
2022-11-20T10:48:53.467Z,46.95
2022-11-20T10:51:42.977Z,41.20
2022-11-20T10:54:28.074Z,43.45
2022-11-20T10:57:01.361Z,41.72
2022-11-20T11:00:00.355Z,38.95
2022-11-20T11:02:37.883Z,45.17
2022-11-20T11:05:27.242Z,41.42
2022-11-20T11:07:58.597Z,45.65
2022-11-20T11:10:43.643Z,45.33
2022-11-20T11:13:21.995Z,42.30
2022-11-20T11:15:48.903Z,47.25
2022-11-20T11:18:28.714Z,55.60
2022-11-20T11:20:57.553Z,51.42
2022-11-20T11:23:44.703Z,50.35
2022-11-20T11:29:04.451Z,49.95
2022-11-20T11:31:36.504Z,51.80
2022-11-20T11:34:07.846Z,49.17
2022-11-20T11:36:36.762Z,48.22
2022-11-20T11:39:06.961Z,52.28
2022-11-20T11:41:38.001Z,53.40
2022-11-20T11:44:39.334Z,46.97
2022-11-20T11:47:12.666Z,51.10
2022-11-20T11:49:39.570Z,54.25
2022-11-20T11:52:09.653Z,53.10
2022-11-20T11:55:11.544Z,49.38
2022-11-20T11:57:45.313Z,56.40
2022-11-20T12:00:16.599Z,56.13
2022-11-20T12:02:46.179Z,62.00
2022-11-20T12:05:35.665Z,55.78
2022-11-20T12:08:12.834Z,60.70
2022-11-20T12:10:45.912Z,58.95
2022-11-20T12:13:23.023Z,67.78
2022-11-20T12:15:50.394Z,74.53
2022-11-20T12:18:19.989Z,65.50
2022-11-20T12:21:09.261Z,67.00
2022-11-20T12:23:41.687Z,53.88
2022-11-20T12:26:39.988Z,46.13
2022-11-20T12:29:26.988Z,47.25
2022-11-20T12:32:27.602Z,49.35
2022-11-20T12:35:16.362Z,54.30
2022-11-20T12:38:01.775Z,47.30
2022-11-20T12:40:40.612Z,48.78
2022-11-20T12:43:41.554Z,49.25
2022-11-20T12:46:20.666Z,51.10
2022-11-20T12:48:57.736Z,55.13
2022-11-20T12:51:30.673Z,52.85
2022-11-20T12:54:22.453Z,53.65
2022-11-20T12:56:51.925Z,49.22
2022-11-20T12:59:34.577Z,54.05
2022-11-20T13:02:13.475Z,55.33
2022-11-20T13:05:00.512Z,52.35
2022-11-20T13:09:56.924Z,53.75
2022-11-20T13:12:51.233Z,61.50
2022-11-20T13:15:46.675Z,62.53
2022-11-20T13:18:14.906Z,46.75
2022-11-20T13:20:49.241Z,48.40
2022-11-20T13:23:29.158Z,52.95
2022-11-20T13:26:16.194Z,58.70
2022-11-20T13:31:27.294Z,57.72
2022-11-20T13:33:56.654Z,57.22
2022-11-20T13:36:27.226Z,63.50
2022-11-20T13:38:55.973Z,61.55
2022-11-20T13:41:39.059Z,55.75
2022-11-20T13:44:26.256Z,68.18
2022-11-20T13:46:53.326Z,66.55
2022-11-20T13:49:45.901Z,71.20
2022-11-20T13:52:49.935Z,61.78
2022-11-20T13:55:25.662Z,61.78
2022-11-20T13:58:37.113Z,56.43
2022-11-20T14:01:15.497Z,64.32
2022-11-20T14:06:32.605Z,57.03
2022-11-20T14:09:00.694Z,58.72
2022-11-20T14:11:29.746Z,57.05
2022-11-20T14:14:05.954Z,61.33
2022-11-20T14:16:36.409Z,60.78
2022-11-20T14:19:21.351Z,54.63
2022-11-20T14:21:49.855Z,61.78
2022-11-20T14:24:26.206Z,55.47
2022-11-20T14:26:53.710Z,61.78
2022-11-20T14:29:29.762Z,55.50
2022-11-20T15:10:07.986Z,46.00
2022-11-20T15:12:50.950Z,41.72
2022-11-20T15:15:22.939Z,43.90
2022-11-20T15:17:50.202Z,40.55
2022-11-20T15:20:18.223Z,37.05
2022-11-20T15:22:46.398Z,45.35
2022-11-20T15:25:18.192Z,43.60
2022-11-20T15:27:46.561Z,58.10
2022-11-20T15:30:19.556Z,41.60
2022-11-20T15:32:47.553Z,38.65
2022-11-20T15:35:16.090Z,36.83
2022-11-20T15:37:43.457Z,34.38
2022-11-20T15:40:10.844Z,29.38
2022-11-20T15:42:37.775Z,28.70
2022-11-20T15:45:05.135Z,35.10
2022-11-20T15:47:35.331Z,42.03
2022-11-20T15:50:02.495Z,37.90
2022-11-20T15:52:40.201Z,34.55
2022-11-20T15:55:11.435Z,42.45
2022-11-20T15:57:38.671Z,40.22
2022-11-20T16:00:06.853Z,39.72
2022-11-20T16:02:33.986Z,43.63
2022-11-20T16:05:00.888Z,41.45
2022-11-20T16:07:27.741Z,44.72
2022-11-20T16:09:56.684Z,37.80
2022-11-20T16:12:42.685Z,37.40
2022-11-20T16:15:28.760Z,38.42
2022-11-20T16:17:55.643Z,37.37
2022-11-20T16:20:23.613Z,37.97
2022-11-20T16:22:50.603Z,41.03
2022-11-20T16:25:17.814Z,42.55
2022-11-20T16:27:44.594Z,40.80
2022-11-20T16:30:11.776Z,39.83
2022-11-20T16:32:40.105Z,38.47
2022-11-20T16:35:08.672Z,37.90
2022-11-20T16:37:35.886Z,36.38
2022-11-20T16:40:02.810Z,34.00
2022-11-20T16:42:37.145Z,36.10
2022-11-20T16:45:05.461Z,38.70
2022-11-20T16:47:36.018Z,34.83
2022-11-20T16:50:04.136Z,32.47
2022-11-20T16:52:31.826Z,30.30
2022-11-20T16:54:59.385Z,34.95
2022-11-20T16:57:29.702Z,37.38
2022-11-20T17:00:01.833Z,34.97
2022-11-20T17:02:29.223Z,35.55
2022-11-20T17:04:57.555Z,35.47
2022-11-20T17:07:24.503Z,36.08
2022-11-20T17:09:51.969Z,32.22
2022-11-20T17:12:19.137Z,27.67
2022-11-20T17:14:46.650Z,26.70
2022-11-20T17:17:13.510Z,30.75
2022-11-20T17:19:40.406Z,32.10
2022-11-20T17:22:07.451Z,30.23
2022-11-20T17:24:34.893Z,34.90
2022-11-20T17:27:03.789Z,35.75
2022-11-20T17:29:30.740Z,35.30
2022-11-20T17:31:59.094Z,40.28
2022-11-20T17:34:28.053Z,43.92
2022-11-20T17:36:55.804Z,40.17
2022-11-20T17:39:22.904Z,41.50
2022-11-20T17:42:11.272Z,45.92
2022-11-20T17:44:38.152Z,34.00
2022-11-20T17:47:04.989Z,33.85
2022-11-20T17:49:32.131Z,37.28
2022-11-20T17:51:58.964Z,38.78
2022-11-20T17:54:26.050Z,32.47
2022-11-20T17:57:11.629Z,26.83
2022-11-20T17:59:38.538Z,34.30
2022-11-20T18:02:05.665Z,29.15
2022-11-20T18:04:33.059Z,27.60
2022-11-20T18:07:00.001Z,26.52
2022-11-20T18:09:26.909Z,24.58
2022-11-20T18:11:56.580Z,26.60
2022-11-20T18:14:32.556Z,27.73
2022-11-20T18:17:03.752Z,30.55
2022-11-20T18:19:40.309Z,26.73
2022-11-20T18:22:14.430Z,27.40
2022-11-20T18:24:42.276Z,26.38
2022-11-20T18:27:15.164Z,24.27
2022-11-20T18:29:42.221Z,23.55
2022-11-20T18:32:09.159Z,28.55
2022-11-20T18:34:35.999Z,27.42
2022-11-20T18:37:05.358Z,27.88
2022-11-20T18:39:33.031Z,26.15
2022-11-20T18:42:18.309Z,25.00
2022-11-20T18:44:53.957Z,30.83
2022-11-20T18:47:26.260Z,23.67
2022-11-20T18:49:54.869Z,23.13
2022-11-20T18:52:30.589Z,26.17
2022-11-20T18:54:57.548Z,23.30
2022-11-20T18:57:27.149Z,29.02
2022-11-20T19:00:06.790Z,28.13
2022-11-20T19:05:23.588Z,35.80
2022-11-20T19:07:50.528Z,24.38
2022-11-20T19:10:20.518Z,26.40
2022-11-20T19:12:48.285Z,24.55
2022-11-20T19:15:16.094Z,19.33
2022-11-20T19:17:42.974Z,20.95
2022-11-20T19:20:10.788Z,17.92
2022-11-20T19:22:37.769Z,16.73
2022-11-20T19:25:04.959Z,18.73
2022-11-20T19:27:31.936Z,17.13
2022-11-20T19:30:03.843Z,15.00
2022-11-20T19:32:31.295Z,17.00
2022-11-20T19:34:58.099Z,17.95
2022-11-20T19:37:25.445Z,17.20
2022-11-20T19:39:52.298Z,17.30
2022-11-20T19:42:19.177Z,19.02
2022-11-20T19:44:46.002Z,20.60
2022-11-20T19:47:14.753Z,17.55
2022-11-20T19:49:42.040Z,17.60
2022-11-20T19:52:08.887Z,18.25
2022-11-20T19:54:35.691Z,17.23
2022-11-20T19:57:02.530Z,14.98
2022-11-20T19:59:29.378Z,14.70
2022-11-20T20:01:56.248Z,13.52
2022-11-20T20:04:23.165Z,17.08
2022-11-20T20:06:50.909Z,12.63
2022-11-20T20:13:27.012Z,15.48
2022-11-20T20:15:54.217Z,10.90
2022-11-20T20:18:20.991Z,12.32
2022-11-20T20:20:48.049Z,11.23
2022-11-20T20:23:14.895Z,10.48
2022-11-20T20:25:41.754Z,9.80
2022-11-20T20:28:08.666Z,10.40
2022-11-20T20:30:36.306Z,8.98
2022-11-20T20:33:03.100Z,9.50
2022-11-20T20:35:30.056Z,12.00
2022-11-20T20:37:57.020Z,12.90
2022-11-20T20:40:23.888Z,13.27
2022-11-20T20:42:50.856Z,13.68
2022-11-20T20:45:17.693Z,14.50
2022-11-20T20:47:44.649Z,9.07
2022-11-20T20:50:13.518Z,9.63
2022-11-20T20:52:40.878Z,7.50
2022-11-20T20:55:08.279Z,10.82
2022-11-20T20:57:35.161Z,10.25
2022-11-20T21:00:02.622Z,9.23
2022-11-20T21:02:29.458Z,9.27
2022-11-20T21:04:56.491Z,8.82
2022-11-20T21:07:23.687Z,7.68
2022-11-20T21:09:50.606Z,8.55
2022-11-20T21:12:17.683Z,5.93
2022-11-20T21:14:44.857Z,6.35
2022-11-20T21:17:15.132Z,9.32
2022-11-20T21:19:42.364Z,10.98
2022-11-20T21:22:09.237Z,7.22
2022-11-20T21:24:36.882Z,7.60
2022-11-20T21:27:06.235Z,6.15
2022-11-20T21:29:33.193Z,6.28
2022-11-20T21:31:59.999Z,7.70
2022-11-20T21:34:27.010Z,7.70
2022-11-20T21:36:53.831Z,6.05
2022-11-20T21:39:22.048Z,6.70
2022-11-20T21:41:49.094Z,8.43
2022-11-20T21:44:30.676Z,8.55
2022-11-20T21:46:58.475Z,20.45
2022-11-20T21:49:25.724Z,24.63
2022-11-20T21:51:53.861Z,30.98
2022-11-20T21:54:20.952Z,25.60
2022-11-20T21:56:47.956Z,20.63
2022-11-20T21:59:14.854Z,25.30
2022-11-20T22:01:41.942Z,25.45
2022-11-20T22:04:13.815Z,25.08
2022-11-20T22:06:40.639Z,24.40
2022-11-20T22:09:07.640Z,20.80
2022-11-20T22:11:34.516Z,27.67
2022-11-20T22:14:20.144Z,21.35
2022-11-20T22:16:47.985Z,22.77
2022-11-20T22:19:19.675Z,26.27
2022-11-20T22:21:48.493Z,20.00
2022-11-20T22:24:17.573Z,22.35
2022-11-20T22:26:47.824Z,15.90
2022-11-20T22:29:18.342Z,14.68
2022-11-20T22:33:35.102Z,10.87
2022-11-20T22:36:07.430Z,9.13
2022-11-20T22:38:39.107Z,7.68
2022-11-20T22:41:18.272Z,8.38
2022-11-20T22:43:46.062Z,8.73
2022-11-20T22:46:15.316Z,10.20
2022-11-20T22:48:45.512Z,10.82
2022-11-20T22:51:14.964Z,9.57
2022-11-20T22:53:43.230Z,5.20
2022-11-20T22:56:14.962Z,5.22
2022-11-20T22:58:44.387Z,4.13
2022-11-20T23:01:14.237Z,7.43
2022-11-20T23:03:43.241Z,6.60
2022-11-20T23:06:10.853Z,6.47
2022-11-20T23:08:39.288Z,6.20
2022-11-20T23:11:09.794Z,4.63
2022-11-20T23:13:37.224Z,4.38
2022-11-20T23:16:07.214Z,4.68
2022-11-20T23:18:34.964Z,4.32
2022-11-20T23:21:10.828Z,3.78
2022-11-20T23:23:37.924Z,4.25
2022-11-20T23:26:10.196Z,3.63
2022-11-20T23:28:37.406Z,3.67
2022-11-20T23:31:06.221Z,3.28
2022-11-20T23:33:36.200Z,4.57
2022-11-20T23:36:03.389Z,3.13
2022-11-20T23:38:30.384Z,3.95
2022-11-20T23:40:57.222Z,2.63
2022-11-20T23:43:24.441Z,3.80
2022-11-20T23:45:53.512Z,6.20
2022-11-20T23:48:22.019Z,3.00
2022-11-20T23:50:49.624Z,3.22
2022-11-20T23:53:16.904Z,2.42
2022-11-20T23:55:48.482Z,2.78
2022-11-20T23:58:16.113Z,2.80
